createdAt,value
2018-09-28T00:01:43.522Z,56.90
2018-09-28T00:04:12.807Z,56.38
2018-09-28T00:06:41.643Z,56.84
2018-09-28T00:09:11.282Z,57.07
2018-09-28T00:11:40.183Z,56.90
2018-09-28T00:14:09.295Z,56.30
2018-09-28T00:16:38.107Z,57.48
2018-09-28T00:19:06.991Z,57.47
2018-09-28T00:21:35.791Z,57.54
2018-09-28T00:24:11.136Z,57.83
2018-09-28T00:26:39.892Z,58.09
2018-09-28T00:29:08.899Z,57.72
2018-09-28T00:31:37.759Z,58.32
2018-09-28T00:34:06.608Z,57.94
2018-09-28T00:36:35.468Z,58.00
2018-09-28T00:39:05.345Z,58.17
2018-09-28T00:41:34.192Z,58.42
2018-09-28T00:44:03.133Z,58.36
2018-09-28T00:46:32.080Z,58.88
2018-09-28T00:49:01.008Z,58.92
2018-09-28T00:51:29.875Z,58.85
2018-09-28T00:53:58.732Z,59.16
2018-09-28T00:56:27.503Z,58.94
2018-09-28T00:58:56.856Z,59.10
2018-09-28T01:01:25.624Z,58.99
2018-09-28T01:03:54.466Z,58.89
2018-09-28T01:06:23.307Z,58.38
2018-09-28T01:08:52.115Z,57.09
2018-09-28T01:11:21.040Z,56.78
2018-09-28T01:13:49.807Z,56.98
2018-09-28T01:16:18.613Z,55.88
2018-09-28T01:18:47.411Z,56.14
2018-09-28T01:21:16.241Z,56.04
2018-09-28T01:23:45.060Z,56.99
2018-09-28T01:26:13.827Z,56.96
2018-09-28T01:28:42.610Z,58.04
2018-09-28T01:31:11.555Z,58.57
2018-09-28T01:33:40.344Z,58.97
2018-09-28T01:36:09.188Z,58.90
2018-09-28T01:38:38.052Z,59.70
2018-09-28T01:41:06.940Z,59.63
2018-09-28T01:43:35.737Z,59.52
2018-09-28T01:46:04.500Z,59.37
2018-09-28T01:48:33.280Z,59.71
2018-09-28T01:51:02.037Z,59.53
2018-09-28T01:53:30.869Z,59.44
2018-09-28T01:55:59.744Z,58.64
2018-09-28T01:58:28.585Z,59.07
2018-09-28T02:00:57.585Z,58.05
2018-09-28T02:03:26.427Z,58.09
2018-09-28T02:05:55.262Z,58.14
2018-09-28T02:08:24.205Z,58.85
2018-09-28T02:10:53.099Z,59.20
2018-09-28T02:13:21.968Z,59.68
2018-09-28T02:15:50.773Z,59.86
2018-09-28T02:18:19.804Z,60.36
2018-09-28T02:20:48.547Z,60.81
2018-09-28T02:23:17.473Z,60.82
2018-09-28T02:25:46.343Z,60.94
2018-09-28T02:28:15.180Z,61.29
2018-09-28T02:30:44.077Z,61.47
2018-09-28T02:33:12.934Z,61.57
2018-09-28T02:35:41.821Z,62.23
2018-09-28T02:38:10.667Z,61.94
2018-09-28T02:40:39.453Z,62.04
2018-09-28T02:43:08.295Z,62.11
2018-09-28T02:45:37.110Z,62.18
2018-09-28T02:48:06.369Z,62.18
2018-09-28T02:50:35.168Z,61.60
2018-09-28T02:53:03.958Z,60.97
2018-09-28T02:55:32.940Z,60.47
2018-09-28T02:58:01.828Z,59.81
2018-09-28T03:00:30.756Z,59.40
2018-09-28T03:02:59.615Z,60.35
2018-09-28T03:05:28.430Z,60.73
2018-09-28T03:07:57.188Z,61.23
2018-09-28T03:10:25.980Z,59.50
2018-09-28T03:12:55.050Z,59.01
2018-09-28T03:15:23.896Z,58.78
2018-09-28T03:17:52.720Z,58.92
2018-09-28T03:20:21.538Z,59.09
2018-09-28T03:22:50.335Z,58.96
2018-09-28T03:25:19.324Z,59.46
2018-09-28T03:27:48.136Z,59.71
2018-09-28T03:30:17.087Z,60.03
2018-09-28T03:32:45.868Z,60.29
2018-09-28T03:35:14.702Z,61.20
2018-09-28T03:37:43.629Z,61.57
2018-09-28T03:40:12.403Z,62.15
2018-09-28T03:42:41.169Z,62.44
2018-09-28T03:45:10.262Z,62.29
2018-09-28T03:47:40.136Z,62.86
2018-09-28T03:50:09.060Z,62.99
2018-09-28T03:52:37.951Z,62.99
2018-09-28T03:55:07.202Z,63.36
2018-09-28T03:57:35.996Z,63.41
2018-09-28T04:00:09.451Z,63.20
2018-09-28T04:02:38.848Z,62.80
2018-09-28T04:05:07.934Z,62.58
2018-09-28T04:07:37.109Z,62.84
2018-09-28T04:10:07.207Z,62.63
2018-09-28T04:12:36.059Z,62.97
2018-09-28T04:15:04.960Z,62.96
2018-09-28T04:17:33.772Z,63.11
2018-09-28T04:20:02.588Z,63.27
2018-09-28T04:22:31.449Z,62.73
2018-09-28T04:25:00.474Z,63.12
2018-09-28T04:27:29.323Z,63.13
2018-09-28T04:29:58.105Z,62.86
2018-09-28T04:32:26.894Z,62.67
2018-09-28T04:34:55.759Z,62.78
2018-09-28T04:37:24.633Z,62.21
2018-09-28T04:39:53.532Z,61.97
2018-09-28T04:42:22.340Z,61.74
2018-09-28T04:44:51.341Z,60.87
2018-09-28T04:47:20.324Z,60.79
2018-09-28T04:49:49.127Z,60.61
2018-09-28T04:52:17.898Z,61.15
2018-09-28T04:54:46.687Z,59.78
2018-09-28T04:57:15.447Z,59.72
2018-09-28T04:59:44.295Z,60.28
2018-09-28T05:02:13.146Z,60.03
2018-09-28T05:04:42.000Z,60.08
2018-09-28T05:07:10.793Z,59.63
2018-09-28T05:09:39.600Z,59.54
2018-09-28T05:12:08.444Z,59.01
2018-09-28T05:14:37.228Z,58.27
2018-09-28T05:17:06.137Z,57.77
2018-09-28T05:19:35.022Z,57.39
2018-09-28T05:22:04.076Z,57.54
2018-09-28T05:24:32.879Z,57.23
2018-09-28T05:27:01.789Z,56.55
2018-09-28T05:29:30.680Z,56.46
2018-09-28T05:31:59.670Z,56.40
2018-09-28T05:34:28.803Z,55.96
2018-09-28T05:36:57.583Z,56.09
2018-09-28T05:39:26.490Z,55.49
2018-09-28T05:41:55.492Z,54.58
2018-09-28T05:44:24.396Z,53.78
2018-09-28T05:46:53.202Z,53.71
2018-09-28T05:49:22.008Z,53.17
2018-09-28T05:51:50.859Z,53.45
2018-09-28T05:54:19.619Z,52.38
2018-09-28T05:56:48.454Z,51.24
2018-09-28T05:59:22.619Z,52.52
2018-09-28T06:01:56.596Z,52.41
2018-09-28T06:04:30.512Z,51.44
2018-09-28T06:06:59.384Z,52.09
2018-09-28T06:09:28.275Z,51.20
2018-09-28T06:11:57.188Z,51.05
2018-09-28T06:14:26.021Z,51.31
2018-09-28T06:16:54.804Z,51.77
2018-09-28T06:19:24.861Z,50.13
2018-09-28T06:21:53.780Z,50.88
2018-09-28T06:24:22.743Z,50.51
2018-09-28T06:26:51.725Z,50.13
2018-09-28T06:29:20.568Z,49.30
2018-09-28T06:31:49.347Z,48.83
2018-09-28T06:34:18.229Z,48.36
2018-09-28T06:36:47.076Z,48.82
2018-09-28T06:39:15.918Z,48.05
2018-09-28T06:41:44.927Z,47.60
2018-09-28T06:44:13.860Z,47.15
2018-09-28T06:46:42.638Z,47.26
2018-09-28T06:49:11.516Z,46.97
2018-09-28T06:51:40.391Z,46.95
2018-09-28T06:54:09.285Z,46.68
2018-09-28T06:56:38.334Z,45.85
2018-09-28T06:59:07.393Z,45.61
2018-09-28T07:01:36.509Z,45.73
2018-09-28T07:04:05.380Z,45.12
2018-09-28T07:06:36.059Z,44.78
2018-09-28T07:09:06.808Z,45.11
2018-09-28T07:11:35.656Z,43.85
2018-09-28T07:14:04.565Z,43.77
2018-09-28T07:16:33.594Z,44.37
2018-09-28T07:19:02.555Z,43.07
2018-09-28T07:21:31.553Z,42.75
2018-09-28T07:24:00.581Z,42.69
2018-09-28T07:26:29.456Z,42.37
2018-09-28T07:28:58.303Z,41.44
2018-09-28T07:31:27.228Z,41.27
2018-09-28T07:33:56.104Z,40.89
2018-09-28T07:36:24.961Z,40.80
2018-09-28T07:38:54.045Z,40.47
2018-09-28T07:41:22.839Z,40.15
2018-09-28T07:43:51.772Z,39.87
2018-09-28T07:46:20.752Z,39.33
2018-09-28T07:48:49.550Z,39.73
2018-09-28T07:51:18.448Z,39.55
2018-09-28T07:53:47.259Z,38.83
2018-09-28T07:56:16.090Z,38.33
2018-09-28T07:58:44.921Z,38.44
2018-09-28T08:01:13.739Z,37.38
2018-09-28T08:03:42.548Z,37.91
2018-09-28T08:06:11.384Z,37.51
2018-09-28T08:08:40.274Z,37.05
2018-09-28T08:11:09.101Z,36.88
2018-09-28T08:13:37.865Z,35.99
2018-09-28T08:16:06.752Z,35.16
2018-09-28T08:18:35.680Z,35.37
2018-09-28T08:21:04.671Z,34.39
2018-09-28T08:23:33.527Z,34.19
2018-09-28T08:26:02.387Z,33.64
2018-09-28T08:28:31.255Z,33.46
2018-09-28T08:31:00.101Z,34.50
2018-09-28T08:33:29.100Z,33.99
2018-09-28T08:35:58.204Z,33.32
2018-09-28T08:38:28.036Z,32.41
2018-09-28T08:40:56.856Z,32.74
2018-09-28T08:43:25.738Z,33.24
2018-09-28T08:45:54.728Z,32.53
2018-09-28T08:48:23.664Z,31.64
2018-09-28T08:50:53.067Z,31.08
2018-09-28T08:53:21.903Z,30.56
2018-09-28T08:55:50.755Z,30.63
2018-09-28T08:58:19.793Z,29.59
2018-09-28T09:00:48.765Z,29.69
2018-09-28T09:03:17.556Z,29.00
2018-09-28T09:05:46.430Z,29.49
2018-09-28T09:08:15.237Z,29.77
2018-09-28T09:10:44.024Z,29.06
2018-09-28T09:13:12.799Z,29.07
2018-09-28T09:15:41.567Z,28.51
2018-09-28T09:18:10.808Z,28.53
2018-09-28T09:20:39.877Z,28.45
2018-09-28T09:23:08.771Z,28.18
2018-09-28T09:25:37.636Z,27.02
2018-09-28T09:28:06.584Z,28.53
2018-09-28T09:30:35.380Z,27.98
2018-09-28T09:33:04.148Z,28.29
2018-09-28T09:35:33.059Z,27.58
2018-09-28T09:38:01.868Z,27.04
2018-09-28T09:40:30.637Z,27.79
2018-09-28T09:42:59.459Z,26.15
2018-09-28T09:45:28.428Z,26.20
2018-09-28T09:47:57.292Z,25.54
2018-09-28T09:50:26.153Z,25.45
2018-09-28T09:52:54.935Z,25.54
2018-09-28T09:55:23.952Z,24.77
2018-09-28T09:57:52.920Z,23.69
2018-09-28T10:00:27.128Z,23.96
2018-09-28T10:03:01.510Z,23.52
2018-09-28T10:05:30.578Z,21.25
2018-09-28T10:07:59.554Z,21.17
2018-09-28T10:10:28.379Z,21.10
2018-09-28T10:12:57.194Z,19.73
2018-09-28T10:15:26.083Z,18.72
2018-09-28T10:17:54.959Z,18.67
2018-09-28T10:20:23.983Z,17.74
2018-09-28T10:22:52.871Z,17.33
2018-09-28T10:25:21.666Z,18.25
2018-09-28T10:27:50.588Z,18.14
2018-09-28T10:30:19.782Z,17.39
2018-09-28T10:32:48.848Z,17.78
2018-09-28T10:35:17.623Z,17.84
2018-09-28T10:37:46.560Z,17.25
2018-09-28T10:40:21.967Z,17.47
2018-09-28T10:42:50.939Z,17.95
2018-09-28T10:45:19.802Z,17.85
2018-09-28T10:47:48.753Z,18.82
2018-09-28T10:50:17.669Z,18.51
2018-09-28T10:52:46.585Z,17.23
2018-09-28T10:55:15.497Z,17.02
2018-09-28T10:57:44.384Z,17.08
2018-09-28T11:00:13.243Z,16.94
2018-09-28T11:02:42.144Z,17.04
2018-09-28T11:05:10.988Z,15.86
2018-09-28T11:07:39.785Z,16.38
2018-09-28T11:10:08.635Z,15.79
2018-09-28T11:12:37.614Z,16.11
2018-09-28T11:15:06.484Z,16.26
2018-09-28T11:17:35.444Z,16.83
2018-09-28T11:20:04.435Z,17.50
2018-09-28T11:22:33.209Z,16.97
2018-09-28T11:25:02.194Z,17.31
2018-09-28T11:27:31.104Z,17.53
2018-09-28T11:29:59.925Z,17.36
2018-09-28T11:32:28.806Z,17.82
2018-09-28T11:34:57.633Z,17.36
2018-09-28T11:37:26.592Z,17.66
2018-09-28T11:39:55.512Z,15.75
2018-09-28T11:42:24.328Z,15.60
2018-09-28T11:44:53.163Z,16.76
2018-09-28T11:47:22.015Z,17.47
2018-09-28T11:49:50.796Z,17.22
2018-09-28T11:52:19.692Z,16.98
2018-09-28T11:54:48.660Z,16.92
2018-09-28T11:57:17.693Z,16.58
2018-09-28T11:59:46.665Z,15.20
2018-09-28T12:02:15.552Z,15.98
2018-09-28T12:04:44.360Z,16.58
2018-09-28T12:07:13.240Z,16.45
2018-09-28T12:09:42.378Z,16.75
2018-09-28T12:12:11.452Z,16.90
2018-09-28T12:14:40.427Z,15.83
2018-09-28T12:17:09.284Z,15.91
2018-09-28T12:19:38.075Z,15.90
2018-09-28T12:22:07.088Z,16.02
2018-09-28T12:24:35.967Z,16.65
2018-09-28T12:27:05.002Z,16.75
2018-09-28T12:29:33.874Z,16.14
2018-09-28T12:32:02.940Z,15.60
2018-09-28T12:34:31.832Z,15.74
2018-09-28T12:37:00.717Z,15.98
2018-09-28T12:39:29.672Z,16.23
2018-09-28T12:41:58.685Z,14.85
2018-09-28T12:44:27.547Z,15.62
2018-09-28T12:46:56.581Z,15.02
2018-09-28T12:49:25.727Z,15.73
2018-09-28T12:51:54.805Z,15.31
2018-09-28T12:54:23.712Z,15.25
2018-09-28T12:56:52.764Z,15.52
2018-09-28T12:59:21.823Z,15.49
2018-09-28T13:01:50.790Z,15.27
2018-09-28T13:04:20.182Z,15.73
2018-09-28T13:06:50.509Z,15.41
2018-09-28T13:09:19.438Z,14.70
2018-09-28T13:11:48.329Z,14.81
2018-09-28T13:14:17.171Z,14.51
2018-09-28T13:16:46.187Z,15.23
2018-09-28T13:19:15.247Z,15.03
2018-09-28T13:21:44.100Z,14.66
2018-09-28T13:24:13.136Z,14.41
2018-09-28T13:26:42.145Z,14.75
2018-09-28T13:29:11.175Z,14.57
2018-09-28T13:31:40.155Z,14.94
2018-09-28T13:34:09.060Z,13.40
2018-09-28T13:36:38.009Z,14.00
2018-09-28T13:39:09.051Z,13.90
2018-09-28T13:41:38.450Z,13.91
2018-09-28T13:44:07.460Z,13.69
2018-09-28T13:46:36.421Z,13.72
2018-09-28T13:49:05.413Z,14.31
2018-09-28T13:51:34.302Z,14.08
2018-09-28T13:54:03.140Z,13.68
2018-09-28T13:56:31.913Z,14.80
2018-09-28T13:59:00.752Z,14.57
2018-09-28T14:01:29.562Z,14.70
2018-09-28T14:03:58.453Z,14.72
2018-09-28T14:06:27.508Z,15.07
2018-09-28T14:08:56.564Z,14.93
2018-09-28T14:11:25.363Z,14.44
2018-09-28T14:13:54.308Z,15.32
2018-09-28T14:16:23.409Z,14.70
2018-09-28T14:18:52.432Z,14.54
2018-09-28T14:21:21.463Z,14.72
2018-09-28T14:23:50.316Z,14.72
2018-09-28T14:26:19.192Z,14.87
2018-09-28T14:28:48.164Z,15.04
2018-09-28T14:31:17.255Z,13.11
2018-09-28T14:33:46.097Z,13.32
2018-09-28T14:36:15.209Z,13.20
2018-09-28T14:38:44.369Z,13.05
2018-09-28T14:41:13.374Z,13.35
2018-09-28T14:43:42.184Z,12.92
2018-09-28T14:46:10.955Z,13.52
2018-09-28T14:48:40.075Z,12.48
2018-09-28T14:51:09.163Z,12.74
2018-09-28T14:53:38.176Z,12.96
2018-09-28T14:56:07.380Z,12.84
2018-09-28T14:58:36.480Z,13.36
2018-09-28T15:01:05.540Z,13.34
2018-09-28T15:03:34.523Z,13.53
2018-09-28T15:06:03.337Z,13.31
2018-09-28T15:08:32.361Z,13.43
2018-09-28T15:11:01.357Z,13.07
2018-09-28T15:13:30.164Z,13.47
2018-09-28T15:15:58.956Z,13.96
2018-09-28T15:18:27.859Z,15.13
2018-09-28T15:20:56.870Z,15.11
2018-09-28T15:23:25.788Z,14.82
2018-09-28T15:25:54.701Z,14.81
2018-09-28T15:28:23.571Z,15.20
2018-09-28T15:30:52.450Z,15.47
2018-09-28T15:33:21.265Z,16.32
2018-09-28T15:35:50.213Z,16.86
2018-09-28T15:38:19.098Z,16.66
2018-09-28T15:40:48.116Z,17.75
2018-09-28T15:43:16.983Z,18.37
2018-09-28T15:45:45.802Z,18.45
2018-09-28T15:48:14.612Z,18.61
2018-09-28T15:50:43.520Z,18.81
2018-09-28T15:53:12.448Z,18.57
2018-09-28T15:55:41.325Z,19.33
2018-09-28T15:58:10.235Z,19.27
2018-09-28T16:00:39.124Z,19.20
2018-09-28T16:03:08.014Z,19.81
2018-09-28T16:05:36.832Z,19.90
2018-09-28T16:08:05.640Z,19.45
2018-09-28T16:10:34.514Z,20.02
2018-09-28T16:13:03.366Z,20.22
2018-09-28T16:15:32.294Z,19.65
2018-09-28T16:18:01.151Z,20.36
2018-09-28T16:20:30.029Z,20.71
2018-09-28T16:22:58.834Z,19.91
2018-09-28T16:25:27.710Z,20.69
2018-09-28T16:27:56.512Z,20.29
2018-09-28T16:30:25.448Z,20.76
2018-09-28T16:32:54.315Z,20.95
2018-09-28T16:35:23.120Z,21.07
2018-09-28T16:37:51.980Z,19.43
2018-09-28T16:40:20.783Z,19.88
2018-09-28T16:42:49.640Z,19.25
2018-09-28T16:45:18.521Z,20.03
2018-09-28T16:47:47.360Z,19.34
2018-09-28T16:50:16.177Z,19.24
2018-09-28T16:52:44.980Z,19.99
2018-09-28T16:55:13.868Z,19.67
2018-09-28T16:57:42.751Z,20.20
2018-09-28T17:00:11.690Z,20.33
2018-09-28T17:02:40.587Z,20.95
2018-09-28T17:05:09.875Z,20.79
2018-09-28T17:07:38.852Z,21.16
2018-09-28T17:10:07.901Z,20.57
2018-09-28T17:12:36.714Z,19.97
2018-09-28T17:15:05.949Z,19.83
2018-09-28T17:17:35.270Z,20.22
2018-09-28T17:20:04.169Z,19.55
2018-09-28T17:22:33.073Z,19.10
2018-09-28T17:25:02.042Z,19.96
2018-09-28T17:27:30.821Z,19.27
2018-09-28T17:29:59.623Z,18.95
2018-09-28T17:32:28.420Z,18.58
2018-09-28T17:34:57.249Z,17.92
2018-09-28T17:37:26.244Z,17.68
2018-09-28T17:39:55.093Z,18.14
2018-09-28T17:42:23.901Z,18.53
2018-09-28T17:44:52.952Z,20.38
2018-09-28T17:47:21.908Z,21.63
2018-09-28T17:49:50.717Z,22.02
2018-09-28T17:52:20.113Z,21.49
2018-09-28T17:54:49.050Z,22.42
2018-09-28T17:57:17.897Z,23.42
2018-09-28T17:59:46.687Z,23.56
2018-09-28T18:02:15.716Z,23.71
2018-09-28T18:04:44.590Z,23.74
2018-09-28T18:07:13.485Z,23.32
2018-09-28T18:09:42.622Z,22.67
2018-09-28T18:12:11.529Z,23.13
2018-09-28T18:14:40.365Z,22.64
2018-09-28T18:17:09.187Z,22.55
2018-09-28T18:19:37.989Z,23.51
2018-09-28T18:22:06.953Z,24.01
2018-09-28T18:24:35.864Z,24.33
2018-09-28T18:27:04.718Z,24.90
2018-09-28T18:29:33.538Z,25.38
2018-09-28T18:32:02.415Z,24.97
2018-09-28T18:34:31.252Z,25.49
2018-09-28T18:37:00.105Z,25.71
2018-09-28T18:39:28.992Z,25.32
2018-09-28T18:41:57.858Z,25.66
2018-09-28T18:44:26.775Z,25.69
2018-09-28T18:46:55.577Z,26.14
2018-09-28T18:49:24.379Z,25.11
2018-09-28T18:51:53.278Z,24.99
2018-09-28T18:54:22.256Z,25.27
2018-09-28T18:56:51.232Z,25.92
2018-09-28T18:59:20.034Z,25.75
2018-09-28T19:01:49.023Z,26.00
2018-09-28T19:04:17.961Z,26.08
2018-09-28T19:06:46.820Z,25.36
2018-09-28T19:09:15.640Z,25.61
2018-09-28T19:11:44.496Z,26.03
2018-09-28T19:14:13.382Z,26.82
2018-09-28T19:16:42.184Z,26.66
2018-09-28T19:19:11.002Z,25.89
2018-09-28T19:21:39.850Z,26.25
2018-09-28T19:24:08.627Z,26.10
2018-09-28T19:26:37.518Z,26.29
2018-09-28T19:29:06.409Z,26.60
2018-09-28T19:31:35.720Z,26.74
2018-09-28T19:34:04.560Z,27.01
2018-09-28T19:36:33.601Z,26.96
2018-09-28T19:39:02.384Z,27.04
2018-09-28T19:41:31.275Z,26.67
2018-09-28T19:44:00.065Z,27.01
2018-09-28T19:46:28.993Z,27.41
2018-09-28T19:48:57.963Z,27.30
2018-09-28T19:51:26.846Z,27.52
2018-09-28T19:53:55.688Z,27.65
2018-09-28T19:56:24.564Z,27.54
2018-09-28T19:58:53.427Z,28.02
2018-09-28T20:01:22.211Z,27.24
2018-09-28T20:03:51.054Z,27.60
2018-09-28T20:06:19.878Z,27.35
2018-09-28T20:08:48.843Z,27.81
2018-09-28T20:11:17.643Z,27.95
2018-09-28T20:13:46.485Z,27.91
2018-09-28T20:16:15.531Z,28.03
2018-09-28T20:18:44.286Z,28.92
2018-09-28T20:21:13.146Z,28.23
2018-09-28T20:23:42.019Z,28.82
2018-09-28T20:26:10.792Z,28.46
2018-09-28T20:28:39.618Z,29.23
2018-09-28T20:31:08.557Z,29.60
2018-09-28T20:33:37.372Z,29.44
2018-09-28T20:36:06.200Z,29.96
2018-09-28T20:38:35.072Z,29.23
2018-09-28T20:41:04.044Z,29.34
2018-09-28T20:43:32.837Z,29.15
2018-09-28T20:46:01.712Z,29.58
2018-09-28T20:48:30.549Z,29.84
2018-09-28T20:50:59.414Z,29.62
2018-09-28T20:53:31.352Z,29.93
2018-09-28T20:56:00.227Z,29.11
2018-09-28T20:58:29.073Z,29.04
2018-09-28T21:00:57.950Z,29.67
2018-09-28T21:03:27.028Z,29.23
2018-09-28T21:05:56.213Z,29.55
2018-09-28T21:08:25.963Z,30.06
2018-09-28T21:10:54.839Z,30.10
2018-09-28T21:13:23.689Z,30.26
2018-09-28T21:15:52.697Z,30.98
2018-09-28T21:18:21.501Z,30.46
2018-09-28T21:20:50.352Z,31.21
2018-09-28T21:23:19.143Z,30.65
2018-09-28T21:25:48.021Z,31.21
2018-09-28T21:28:16.854Z,30.73
2018-09-28T21:30:45.712Z,30.71
2018-09-28T21:33:14.596Z,30.78
2018-09-28T21:35:43.469Z,31.14
2018-09-28T21:38:12.316Z,30.83
2018-09-28T21:40:41.204Z,31.26
2018-09-28T21:43:10.121Z,31.63
2018-09-28T21:45:39.077Z,31.10
2018-09-28T21:48:07.912Z,31.65
2018-09-28T21:50:36.722Z,31.45
2018-09-28T21:53:05.596Z,31.48
2018-09-28T21:55:34.383Z,31.56
2018-09-28T21:58:03.164Z,32.15
2018-09-28T22:00:36.154Z,32.76
2018-09-28T22:03:05.813Z,33.65
2018-09-28T22:05:34.721Z,33.50
2018-09-28T22:08:03.977Z,33.22
2018-09-28T22:10:33.292Z,34.35
2018-09-28T22:13:02.142Z,34.77
2018-09-28T22:15:30.912Z,35.03
2018-09-28T22:17:59.780Z,35.29
2018-09-28T22:20:28.786Z,34.92
2018-09-28T22:22:57.650Z,35.53
2018-09-28T22:25:26.446Z,35.31
2018-09-28T22:27:55.216Z,34.91
2018-09-28T22:30:24.179Z,35.14
2018-09-28T22:32:52.994Z,33.77
2018-09-28T22:35:21.772Z,33.48
2018-09-28T22:37:50.568Z,33.91
2018-09-28T22:40:19.357Z,34.24
2018-09-28T22:42:48.312Z,35.19
2018-09-28T22:45:17.180Z,36.04
2018-09-28T22:47:46.085Z,36.29
2018-09-28T22:50:14.934Z,36.43
2018-09-28T22:52:43.691Z,36.43
2018-09-28T22:55:12.490Z,37.75
2018-09-28T22:57:41.291Z,37.16
2018-09-28T23:00:10.283Z,37.21
2018-09-28T23:02:39.097Z,37.43
2018-09-28T23:05:08.004Z,35.48
2018-09-28T23:07:36.845Z,36.09
2018-09-28T23:10:05.722Z,37.21
2018-09-28T23:12:34.645Z,36.54
2018-09-28T23:15:03.512Z,36.02
2018-09-28T23:17:32.365Z,36.03
2018-09-28T23:20:01.280Z,36.90
2018-09-28T23:22:30.421Z,36.82
2018-09-28T23:24:59.284Z,37.63
2018-09-28T23:27:28.099Z,36.65
2018-09-28T23:29:56.966Z,36.97
2018-09-28T23:32:25.741Z,36.43
2018-09-28T23:34:54.520Z,37.10
2018-09-28T23:37:23.331Z,37.51
2018-09-28T23:39:52.204Z,38.35
2018-09-28T23:42:21.014Z,36.61
2018-09-28T23:44:50.185Z,36.91
2018-09-28T23:47:19.056Z,36.41
2018-09-28T23:49:48.069Z,36.71
2018-09-28T23:52:17.098Z,36.63
2018-09-28T23:54:45.941Z,37.10
2018-09-28T23:57:14.778Z,38.16
2018-09-28T23:59:43.535Z,38.21
